createdAt,value
2022-10-13T00:01:24.979Z,97885.44
2022-10-13T00:03:56.442Z,97883.97
2022-10-13T00:06:29.529Z,97899.84
2022-10-13T00:08:56.833Z,97904.97
2022-10-13T00:11:29.130Z,97909.50
2022-10-13T00:14:01.398Z,97900.44
2022-10-13T00:16:30.003Z,97899.31
2022-10-13T00:18:57.493Z,97887.34
2022-10-13T00:21:28.849Z,97874.25
2022-10-13T00:23:59.674Z,97873.25
2022-10-13T00:26:27.817Z,97867.13
2022-10-13T00:28:56.975Z,97865.75
2022-10-13T00:31:30.070Z,97864.56
2022-10-13T00:34:01.048Z,97862.75
2022-10-13T00:36:29.575Z,97866.78
2022-10-13T00:38:59.138Z,97871.38
2022-10-13T00:41:29.647Z,97883.59
2022-10-13T00:44:06.385Z,97892.28
2022-10-13T00:46:37.644Z,97888.19
2022-10-13T00:49:15.895Z,97876.63
2022-10-13T00:51:49.314Z,97871.25
2022-10-13T00:54:25.375Z,97869.34
2022-10-13T00:56:56.779Z,97870.16
2022-10-13T00:59:29.399Z,97871.25
2022-10-13T01:02:00.891Z,97862.75
2022-10-13T01:04:37.336Z,97858.25
2022-10-13T01:07:07.340Z,97851.03
2022-10-13T01:09:42.942Z,97851.75
2022-10-13T01:12:39.670Z,97845.03
2022-10-13T01:15:27.740Z,97844.53
2022-10-13T01:18:37.398Z,97849.06
2022-10-13T01:21:32.821Z,97848.31
2022-10-13T01:24:40.759Z,97836.50
2022-10-13T01:27:17.283Z,97835.06
2022-10-13T01:30:05.683Z,97826.66
2022-10-13T01:32:58.908Z,97825.56
2022-10-13T01:36:17.669Z,97823.56
2022-10-13T01:39:11.131Z,97814.94
2022-10-13T01:42:05.723Z,97807.59
2022-10-13T01:44:43.461Z,97820.81
2022-10-13T01:47:15.567Z,97822.91
2022-10-13T01:49:47.021Z,97813.38
2022-10-13T01:52:38.073Z,97799.38
2022-10-13T01:55:11.700Z,97794.75
2022-10-13T01:57:43.178Z,97792.25
2022-10-13T02:00:19.963Z,97796.59
2022-10-13T02:02:55.992Z,97790.41
2022-10-13T02:06:10.331Z,97799.53
2022-10-13T02:08:47.661Z,97806.53
2022-10-13T02:11:27.898Z,97816.84
2022-10-13T02:14:21.590Z,97811.34
2022-10-13T02:16:52.174Z,97800.28
2022-10-13T02:19:21.000Z,97800.91
2022-10-13T02:22:32.407Z,97786.28
2022-10-13T02:25:03.100Z,97800.00
2022-10-13T02:27:30.980Z,97797.84
2022-10-13T02:29:58.598Z,97796.91
2022-10-13T02:32:26.214Z,97789.31
2022-10-13T02:34:54.445Z,97785.38
2022-10-13T02:37:23.876Z,97774.78
2022-10-13T02:39:50.937Z,97767.28
2022-10-13T02:42:19.016Z,97783.84
2022-10-13T02:44:46.415Z,97800.31
2022-10-13T02:47:13.465Z,97792.06
2022-10-13T02:49:40.594Z,97789.81
2022-10-13T02:52:10.541Z,97776.22
2022-10-13T02:54:40.457Z,97773.13
2022-10-13T02:57:08.019Z,97774.16
2022-10-13T02:59:35.143Z,97766.06
2022-10-13T03:02:02.132Z,97766.81
2022-10-13T03:04:29.755Z,97763.94
2022-10-13T03:06:57.400Z,97776.28
2022-10-13T03:09:24.467Z,97771.25
2022-10-13T03:11:51.651Z,97768.06
2022-10-13T03:14:21.989Z,97771.63
2022-10-13T03:16:50.033Z,97777.97
2022-10-13T03:19:20.036Z,97773.75
2022-10-13T03:21:48.339Z,97770.25
2022-10-13T03:24:15.440Z,97762.13
2022-10-13T03:26:47.210Z,97768.84
2022-10-13T03:29:18.672Z,97755.94
2022-10-13T03:31:52.543Z,97750.59
2022-10-13T03:34:22.518Z,97748.13
2022-10-13T03:36:50.683Z,97741.38
2022-10-13T03:39:18.650Z,97741.22
2022-10-13T03:41:46.349Z,97741.19
2022-10-13T03:44:17.124Z,97740.13
2022-10-13T03:46:45.147Z,97734.03
2022-10-13T03:49:13.336Z,97744.66
2022-10-13T03:51:40.917Z,97753.44
2022-10-13T03:54:11.119Z,97766.97
2022-10-13T03:56:39.912Z,97751.31
2022-10-13T03:59:10.470Z,97754.03
2022-10-13T04:01:43.645Z,97749.09
2022-10-13T04:04:15.754Z,97740.31
2022-10-13T04:06:42.952Z,97741.63
2022-10-13T04:09:10.015Z,97739.38
2022-10-13T04:11:37.104Z,97753.59
2022-10-13T04:14:05.171Z,97746.72
2022-10-13T04:16:32.558Z,97745.50
2022-10-13T04:19:05.296Z,97744.22
2022-10-13T04:21:34.873Z,97746.19
2022-10-13T04:24:03.851Z,97737.41
2022-10-13T04:26:35.554Z,97733.44
2022-10-13T04:29:07.986Z,97728.38
2022-10-13T04:31:39.038Z,97733.69
2022-10-13T04:34:07.842Z,97731.66
2022-10-13T04:36:41.424Z,97734.53
2022-10-13T04:39:08.750Z,97740.03
2022-10-13T04:41:35.845Z,97738.38
2022-10-13T04:44:05.946Z,97730.41
2022-10-13T04:46:38.799Z,97734.50
2022-10-13T04:49:07.419Z,97736.00
2022-10-13T04:51:34.567Z,97734.41
2022-10-13T04:54:03.245Z,97729.03
2022-10-13T04:56:32.661Z,97726.53
2022-10-13T04:59:01.235Z,97728.09
2022-10-13T05:01:28.948Z,97714.47
2022-10-13T05:04:04.262Z,97716.81
2022-10-13T05:06:48.608Z,97715.03
2022-10-13T05:09:24.765Z,97715.72
2022-10-13T05:11:55.900Z,97705.78
2022-10-13T05:14:25.201Z,97707.88
2022-10-13T05:16:52.398Z,97711.88
2022-10-13T05:19:24.115Z,97712.66
2022-10-13T05:21:55.649Z,97714.19
2022-10-13T05:24:46.057Z,97707.53
2022-10-13T05:27:14.102Z,97705.25
2022-10-13T05:29:44.852Z,97704.31
2022-10-13T05:32:18.838Z,97700.75
2022-10-13T05:34:49.490Z,97711.66
2022-10-13T05:37:18.438Z,97710.38
2022-10-13T05:39:48.899Z,97704.38
2022-10-13T05:42:16.372Z,97712.19
2022-10-13T05:44:43.518Z,97712.28
2022-10-13T05:47:10.587Z,97714.44
2022-10-13T05:49:40.092Z,97723.16
2022-10-13T05:52:14.219Z,97726.91
2022-10-13T05:54:47.442Z,97728.03
2022-10-13T05:57:33.419Z,97732.97
2022-10-13T06:00:10.073Z,97741.69
2022-10-13T06:02:48.913Z,97743.06
2022-10-13T06:05:24.598Z,97729.22
2022-10-13T06:07:53.910Z,97733.69
2022-10-13T06:10:25.149Z,97734.75
2022-10-13T06:12:54.721Z,97731.59
2022-10-13T06:15:27.951Z,97739.22
2022-10-13T06:17:55.448Z,97739.88
2022-10-13T06:20:27.544Z,97744.09
2022-10-13T06:22:59.406Z,97748.81
2022-10-13T06:25:26.591Z,97752.44
2022-10-13T06:27:53.550Z,97748.13
2022-10-13T06:30:20.693Z,97757.59
2022-10-13T06:32:50.320Z,97772.16
2022-10-13T06:35:20.340Z,97774.88
2022-10-13T06:37:48.772Z,97769.69
2022-10-13T06:40:22.634Z,97766.09
2022-10-13T06:42:51.169Z,97767.91
2022-10-13T06:45:24.184Z,97763.94
2022-10-13T06:47:55.397Z,97765.28
2022-10-13T06:50:24.543Z,97770.53
2022-10-13T06:52:52.342Z,97769.69
2022-10-13T06:55:22.544Z,97767.53
2022-10-13T06:57:49.628Z,97771.88
2022-10-13T07:00:16.915Z,97772.69
2022-10-13T07:02:50.478Z,97766.81
2022-10-13T07:05:25.206Z,97767.88
2022-10-13T07:07:58.593Z,97772.13
2022-10-13T07:10:25.771Z,97778.19
2022-10-13T07:12:52.705Z,97776.03
2022-10-13T07:15:19.847Z,97776.81
2022-10-13T07:17:46.815Z,97780.94
2022-10-13T07:20:13.959Z,97786.09
2022-10-13T07:22:41.057Z,97775.16
2022-10-13T07:25:09.014Z,97775.13
2022-10-13T07:27:38.164Z,97769.81
2022-10-13T07:30:11.662Z,97772.03
2022-10-13T07:32:42.134Z,97771.19
2022-10-13T07:35:11.064Z,97783.81
2022-10-13T07:37:39.471Z,97781.63
2022-10-13T07:40:08.155Z,97780.09
2022-10-13T07:42:37.915Z,97776.78
2022-10-13T07:45:05.799Z,97779.00
2022-10-13T07:47:34.942Z,97780.00
2022-10-13T07:50:02.056Z,97777.75
2022-10-13T07:52:31.909Z,97772.09
2022-10-13T07:55:01.879Z,97774.13
2022-10-13T07:57:29.047Z,97763.00
2022-10-13T07:59:56.094Z,97769.94
2022-10-13T08:02:23.247Z,97770.94
2022-10-13T08:04:50.415Z,97769.19
2022-10-13T08:07:17.796Z,97769.69
2022-10-13T08:09:45.450Z,97762.44
2022-10-13T08:12:12.485Z,97760.91
2022-10-13T08:14:39.719Z,97758.84
2022-10-13T08:17:09.516Z,97763.53
2022-10-13T08:19:36.782Z,97761.56
2022-10-13T08:22:06.626Z,97761.41
2022-10-13T08:24:37.094Z,97766.66
2022-10-13T08:27:19.025Z,97768.84
2022-10-13T08:29:46.696Z,97765.13
2022-10-13T08:32:14.903Z,97755.59
2022-10-13T08:34:42.450Z,97760.09
2022-10-13T08:37:16.550Z,97764.34
2022-10-13T08:39:44.232Z,97759.81
2022-10-13T08:42:23.286Z,97762.03
2022-10-13T08:47:54.884Z,97761.31
2022-10-13T08:50:27.465Z,97760.50
2022-10-13T08:53:07.688Z,97766.41
2022-10-13T08:56:25.010Z,97758.97
2022-10-13T08:58:58.271Z,97755.72
2022-10-13T09:01:33.262Z,97756.53
2022-10-13T09:04:39.448Z,97752.56
2022-10-13T09:07:13.990Z,97743.78
2022-10-13T09:09:41.445Z,97742.22
2022-10-13T09:12:13.527Z,97744.00
2022-10-13T09:14:41.891Z,97743.78
2022-10-13T09:17:28.991Z,97740.03
2022-10-13T09:20:25.511Z,97741.09
2022-10-13T09:23:15.619Z,97735.13
2022-10-13T09:25:57.231Z,97732.19
2022-10-13T09:28:50.258Z,97722.97
2022-10-13T09:31:34.258Z,97722.16
2022-10-13T09:34:29.083Z,97714.19
2022-10-13T09:37:04.897Z,97710.19
2022-10-13T09:39:41.088Z,97716.41
2022-10-13T09:42:28.640Z,97706.94
2022-10-13T09:45:25.730Z,97705.75
2022-10-13T09:48:06.957Z,97696.78
2022-10-13T09:50:54.449Z,97688.38
2022-10-13T09:53:40.398Z,97692.75
2022-10-13T09:56:24.214Z,97681.47
2022-10-13T09:59:22.074Z,97679.41
2022-10-13T10:01:58.641Z,97670.91
2022-10-13T10:04:38.809Z,97666.56
2022-10-13T10:07:39.123Z,97663.91
2022-10-13T10:10:27.294Z,97667.09
2022-10-13T10:12:55.126Z,97656.91
2022-10-13T10:15:48.633Z,97669.16
2022-10-13T10:19:06.181Z,97667.22
2022-10-13T10:22:28.024Z,97669.19
2022-10-13T10:25:49.441Z,97673.31
2022-10-13T10:28:50.182Z,97666.72
2022-10-13T10:31:43.577Z,97674.94
2022-10-13T10:34:46.956Z,97674.38
2022-10-13T10:37:45.303Z,97668.22
2022-10-13T10:40:55.459Z,97662.00
2022-10-13T10:44:05.693Z,97652.84
2022-10-13T10:46:41.519Z,97662.16
2022-10-13T10:49:29.063Z,97653.09
2022-10-13T10:52:03.407Z,97642.75
2022-10-13T10:55:21.793Z,97640.41
2022-10-13T10:58:40.956Z,97635.97
2022-10-13T11:01:34.982Z,97639.16
2022-10-13T11:04:37.576Z,97629.16
2022-10-13T11:07:38.147Z,97625.53
2022-10-13T11:10:26.606Z,97633.59
2022-10-13T11:12:57.500Z,97629.44
2022-10-13T11:15:42.934Z,97628.44
2022-10-13T11:19:10.139Z,97617.97
2022-10-13T11:22:02.094Z,97605.19
2022-10-13T11:25:23.013Z,97608.03
2022-10-13T11:27:51.000Z,97585.25
2022-10-13T11:30:44.933Z,97592.72
2022-10-13T11:33:37.735Z,97599.63
2022-10-13T11:36:45.583Z,97595.53
2022-10-13T11:40:13.101Z,97594.03
2022-10-13T11:43:14.498Z,97590.09
2022-10-13T11:46:10.187Z,97584.38
2022-10-13T11:49:21.906Z,97580.59
2022-10-13T11:52:54.603Z,97575.84
2022-10-13T11:55:53.870Z,97574.44
2022-10-13T11:58:33.930Z,97556.97
2022-10-13T12:01:13.430Z,97563.13
2022-10-13T12:03:45.280Z,97556.34
2022-10-13T12:06:39.529Z,97561.75
2022-10-13T12:09:22.983Z,97567.16
2022-10-13T12:12:24.692Z,97568.66
2022-10-13T12:15:06.952Z,97568.66
2022-10-13T12:17:41.096Z,97567.00
2022-10-13T12:20:30.493Z,97563.41
2022-10-13T12:23:01.173Z,97561.50
2022-10-13T12:25:34.673Z,97559.59
2022-10-13T12:28:05.717Z,97559.94
2022-10-13T12:30:37.280Z,97562.69
2022-10-13T12:33:31.091Z,97546.88
2022-10-13T12:36:21.385Z,97551.88
2022-10-13T12:39:16.861Z,97549.28
2022-10-13T12:41:51.535Z,97552.41
2022-10-13T12:44:31.780Z,97556.22
2022-10-13T12:47:03.853Z,97551.88
2022-10-13T12:49:36.391Z,97542.28
2022-10-13T12:52:16.365Z,97540.91
2022-10-13T12:54:58.049Z,97550.59
2022-10-13T12:57:38.924Z,97542.06
2022-10-13T13:00:19.370Z,97552.03
2022-10-13T13:03:03.758Z,97547.38
2022-10-13T13:05:51.621Z,97546.41
2022-10-13T13:08:33.031Z,97535.47
2022-10-13T13:11:25.056Z,97530.34
2022-10-13T13:14:36.842Z,97516.66
2022-10-13T13:17:11.670Z,97513.97
2022-10-13T13:19:53.617Z,97513.41
2022-10-13T13:22:21.061Z,97507.72
2022-10-13T13:24:52.505Z,97488.94
2022-10-13T13:27:36.814Z,97479.97
2022-10-13T13:30:13.861Z,97469.31
2022-10-13T13:32:41.526Z,97477.09
2022-10-13T13:35:10.379Z,97482.38
2022-10-13T13:37:50.574Z,97475.03
2022-10-13T13:40:28.587Z,97473.16
2022-10-13T13:42:56.512Z,97485.38
2022-10-13T13:45:41.395Z,97475.97
2022-10-13T13:48:12.348Z,97481.13
2022-10-13T13:50:42.834Z,97472.69
2022-10-13T13:53:10.969Z,97468.28
2022-10-13T13:55:39.135Z,97472.47
2022-10-13T13:58:06.370Z,97462.97
2022-10-13T14:00:33.991Z,97466.47
2022-10-13T14:03:06.167Z,97480.31
2022-10-13T14:05:33.279Z,97469.75
2022-10-13T14:08:01.355Z,97475.94
2022-10-13T14:10:33.188Z,97481.22
2022-10-13T14:13:04.189Z,97470.44
2022-10-13T14:15:41.772Z,97477.00
2022-10-13T14:18:09.212Z,97465.75
2022-10-13T14:20:42.371Z,97473.38
2022-10-13T14:23:09.465Z,97473.63
2022-10-13T14:25:44.996Z,97469.66
2022-10-13T14:28:17.912Z,97466.13
2022-10-13T14:30:45.478Z,97483.59
2022-10-13T14:33:23.409Z,97488.75
2022-10-13T14:36:01.168Z,97494.84
2022-10-13T14:38:28.510Z,97485.44
2022-10-13T14:41:04.389Z,97477.03
2022-10-13T14:43:36.285Z,97474.59
2022-10-13T14:46:25.775Z,97464.28
2022-10-13T14:49:06.295Z,97463.63
2022-10-13T14:51:37.042Z,97467.50
2022-10-13T14:54:05.137Z,97471.50
2022-10-13T14:56:33.411Z,97465.50
2022-10-13T14:59:07.790Z,97470.88
2022-10-13T15:01:35.176Z,97474.38
2022-10-13T15:04:03.525Z,97471.19
2022-10-13T15:06:32.485Z,97466.59
2022-10-13T15:08:59.950Z,97467.00
2022-10-13T15:11:27.843Z,97472.38
2022-10-13T15:13:56.412Z,97468.75
2022-10-13T15:16:28.760Z,97477.16
2022-10-13T15:19:08.737Z,97482.16
2022-10-13T15:21:38.210Z,97465.28
2022-10-13T15:24:05.584Z,97467.41
2022-10-13T15:26:33.816Z,97468.44
2022-10-13T15:29:00.958Z,97457.66
2022-10-13T15:31:28.277Z,97461.22
2022-10-13T15:33:55.561Z,97457.56
2022-10-13T15:36:24.525Z,97457.25
2022-10-13T15:38:52.616Z,97456.91
2022-10-13T15:41:26.550Z,97470.91
2022-10-13T15:43:53.822Z,97471.25
2022-10-13T15:46:24.501Z,97480.38
2022-10-13T15:48:58.615Z,97471.66
2022-10-13T15:51:27.316Z,97476.84
2022-10-13T15:53:55.389Z,97475.50
2022-10-13T15:56:22.763Z,97468.31
2022-10-13T15:58:50.220Z,97476.06
2022-10-13T16:01:17.647Z,97471.34
2022-10-13T16:03:45.032Z,97479.41
2022-10-13T16:06:13.595Z,97484.69
2022-10-13T16:08:47.409Z,97475.94
2022-10-13T16:11:20.385Z,97480.00
2022-10-13T16:13:52.321Z,97483.97
2022-10-13T16:16:23.081Z,97491.66
2022-10-13T16:18:51.465Z,97494.63
2022-10-13T16:21:25.831Z,97497.38
2022-10-13T16:23:53.354Z,97494.78
2022-10-13T16:26:21.207Z,97505.38
2022-10-13T16:28:48.685Z,97504.22
2022-10-13T16:31:18.030Z,97503.03
2022-10-13T16:33:46.257Z,97508.41
2022-10-13T16:36:19.628Z,97516.44
2022-10-13T16:38:47.868Z,97517.81
2022-10-13T16:41:21.095Z,97521.28
2022-10-13T16:43:48.894Z,97525.31
2022-10-13T16:46:22.000Z,97527.19
2022-10-13T16:48:50.712Z,97530.59
2022-10-13T16:51:22.401Z,97525.59
2022-10-13T16:54:10.285Z,97528.47
2022-10-13T16:56:40.773Z,97521.06
2022-10-13T16:59:08.652Z,97526.88
2022-10-13T17:01:36.700Z,97526.00
2022-10-13T17:04:11.042Z,97527.63
2022-10-13T17:06:40.938Z,97523.53
2022-10-13T17:09:10.376Z,97520.53
2022-10-13T17:11:40.935Z,97526.75
2022-10-13T17:14:12.229Z,97527.88
2022-10-13T17:16:39.339Z,97518.56
2022-10-13T17:19:13.592Z,97517.84
2022-10-13T17:21:40.785Z,97527.50
2022-10-13T17:24:08.175Z,97522.09
2022-10-13T17:26:41.204Z,97530.44
2022-10-13T17:29:09.680Z,97540.47
2022-10-13T17:31:37.578Z,97533.16
2022-10-13T17:34:06.506Z,97538.78
2022-10-13T17:36:36.389Z,97536.69
2022-10-13T17:39:08.324Z,97536.81
2022-10-13T17:41:36.372Z,97538.66
2022-10-13T17:44:06.630Z,97543.66
2022-10-13T17:46:37.348Z,97545.00
2022-10-13T17:49:08.227Z,97539.72
2022-10-13T17:51:37.666Z,97534.63
2022-10-13T17:54:14.443Z,97524.78
2022-10-13T17:56:48.235Z,97531.94
2022-10-13T17:59:17.439Z,97535.31
2022-10-13T18:01:46.138Z,97531.66
2022-10-13T18:04:19.102Z,97534.13
2022-10-13T18:06:48.697Z,97537.28
2022-10-13T18:09:23.448Z,97542.44
2022-10-13T18:11:56.904Z,97546.81
2022-10-13T18:14:27.498Z,97554.53
2022-10-13T18:16:55.599Z,97548.75
2022-10-13T18:19:23.056Z,97556.03
2022-10-13T18:21:52.954Z,97557.28
2022-10-13T18:24:20.618Z,97557.09
2022-10-13T18:26:50.955Z,97562.91
2022-10-13T18:29:18.710Z,97561.09
2022-10-13T18:31:46.678Z,97570.53
2022-10-13T18:34:20.544Z,97570.25
2022-10-13T18:36:56.906Z,97568.84
2022-10-13T18:39:27.808Z,97574.28
2022-10-13T18:41:57.801Z,97573.56
2022-10-13T18:44:34.341Z,97568.06
2022-10-13T18:47:01.661Z,97571.97
2022-10-13T18:49:34.924Z,97558.81
2022-10-13T18:52:04.063Z,97560.66
2022-10-13T18:54:35.001Z,97557.31
2022-10-13T18:57:06.234Z,97565.56
2022-10-13T18:59:38.859Z,97572.59
2022-10-13T19:02:13.630Z,97572.06
2022-10-13T19:04:41.097Z,97568.84
2022-10-13T19:07:08.258Z,97573.34
2022-10-13T19:09:39.312Z,97595.38
2022-10-13T19:12:09.262Z,97609.69
2022-10-13T19:14:36.711Z,97611.25
2022-10-13T19:17:06.302Z,97616.63
2022-10-13T19:19:34.219Z,97608.50
2022-10-13T19:22:05.419Z,97624.34
2022-10-13T19:24:32.695Z,97639.91
2022-10-13T19:26:59.784Z,97644.03
2022-10-13T19:29:27.142Z,97650.50
2022-10-13T19:31:58.820Z,97647.28
2022-10-13T19:34:26.097Z,97638.63
2022-10-13T19:37:01.962Z,97626.63
2022-10-13T19:39:29.886Z,97609.63
2022-10-13T19:41:58.457Z,97604.53
2022-10-13T19:44:27.176Z,97587.66
2022-10-13T19:46:55.576Z,97582.56
2022-10-13T19:49:26.557Z,97582.16
2022-10-13T19:51:55.800Z,97589.56
2022-10-13T19:54:32.942Z,97598.47
2022-10-13T19:57:01.613Z,97599.44
2022-10-13T19:59:33.610Z,97598.44
2022-10-13T20:02:01.222Z,97600.94
2022-10-13T20:04:29.306Z,97601.38
2022-10-13T20:06:57.723Z,97601.91
2022-10-13T20:09:24.831Z,97602.34
2022-10-13T20:11:52.855Z,97610.44
2022-10-13T20:14:20.494Z,97609.19
2022-10-13T20:16:56.625Z,97601.59
2022-10-13T20:19:24.005Z,97597.47
2022-10-13T20:21:54.409Z,97603.41
2022-10-13T20:24:24.014Z,97609.31
2022-10-13T20:26:55.920Z,97610.00
2022-10-13T20:29:23.606Z,97611.53
2022-10-13T20:31:56.978Z,97607.81
2022-10-13T20:34:24.418Z,97597.69
2022-10-13T20:36:56.722Z,97604.81
2022-10-13T20:39:24.403Z,97594.22
2022-10-13T20:41:51.916Z,97601.31
2022-10-13T20:44:19.156Z,97614.56
2022-10-13T20:46:46.211Z,97605.91
2022-10-13T20:49:16.246Z,97607.28
2022-10-13T20:51:47.401Z,97620.03
2022-10-13T20:54:17.930Z,97612.63
2022-10-13T20:56:45.161Z,97616.47
2022-10-13T20:59:14.840Z,97607.13
2022-10-13T21:01:45.497Z,97606.28
2022-10-13T21:04:12.701Z,97609.28
2022-10-13T21:06:45.312Z,97617.25
2022-10-13T21:09:13.008Z,97610.50
2022-10-13T21:11:43.028Z,97618.19
2022-10-13T21:14:13.697Z,97619.72
2022-10-13T21:16:40.960Z,97626.47
2022-10-13T21:19:08.042Z,97628.25
2022-10-13T21:21:36.480Z,97624.56
2022-10-13T21:24:07.883Z,97604.41
2022-10-13T21:26:40.033Z,97598.22
2022-10-13T21:29:07.449Z,97586.28
2022-10-13T21:31:42.725Z,97582.81
2022-10-13T21:34:11.413Z,97575.13
2022-10-13T21:36:42.476Z,97585.03
2022-10-13T21:39:13.527Z,97587.63
2022-10-13T21:42:01.939Z,97595.19
2022-10-13T21:44:31.080Z,97597.25
2022-10-13T21:47:02.790Z,97598.63
2022-10-13T21:49:30.008Z,97593.97
2022-10-13T21:51:58.382Z,97596.28
2022-10-13T21:54:25.595Z,97600.81
2022-10-13T21:56:54.050Z,97595.34
2022-10-13T21:59:26.504Z,97601.78
2022-10-13T22:01:55.411Z,97598.34
2022-10-13T22:04:22.699Z,97586.03
2022-10-13T22:06:49.889Z,97586.81
2022-10-13T22:09:17.711Z,97601.38
2022-10-13T22:11:45.369Z,97593.44
2022-10-13T22:14:13.183Z,97598.06
2022-10-13T22:16:48.815Z,97599.59
2022-10-13T22:19:24.607Z,97587.09
2022-10-13T22:21:52.367Z,97584.88
2022-10-13T22:24:21.690Z,97584.31
2022-10-13T22:26:50.731Z,97599.13
2022-10-13T22:29:22.633Z,97586.56
2022-10-13T22:31:55.152Z,97592.31
2022-10-13T22:34:22.696Z,97602.22
2022-10-13T22:36:51.619Z,97612.28
2022-10-13T22:39:18.855Z,97614.69
2022-10-13T22:41:48.991Z,97611.28
2022-10-13T22:44:16.139Z,97616.53
2022-10-13T22:46:46.567Z,97608.81
2022-10-13T22:49:22.543Z,97616.59
2022-10-13T22:51:50.094Z,97606.19
2022-10-13T22:54:17.174Z,97602.38
2022-10-13T22:56:44.305Z,97595.06
2022-10-13T22:59:14.066Z,97593.44
2022-10-13T23:01:41.360Z,97590.25
2022-10-13T23:04:12.543Z,97597.78
2022-10-13T23:06:39.849Z,97614.94
2022-10-13T23:09:12.061Z,97624.16
2022-10-13T23:11:42.718Z,97623.31
2022-10-13T23:14:11.096Z,97619.75
2022-10-13T23:16:38.206Z,97626.72
2022-10-13T23:19:05.486Z,97612.03
2022-10-13T23:21:33.289Z,97617.97
2022-10-13T23:24:05.812Z,97623.38
2022-10-13T23:26:34.716Z,97624.41
2022-10-13T23:29:03.209Z,97619.69
2022-10-13T23:31:31.330Z,97621.78
2022-10-13T23:33:58.998Z,97614.31
2022-10-13T23:36:32.002Z,97610.16
2022-10-13T23:39:04.874Z,97620.25
2022-10-13T23:41:32.593Z,97623.16
2022-10-13T23:43:59.869Z,97621.78
2022-10-13T23:46:27.706Z,97626.16
2022-10-13T23:48:55.432Z,97622.41
2022-10-13T23:51:26.722Z,97626.97
2022-10-13T23:54:01.329Z,97627.94
2022-10-13T23:56:31.402Z,97615.38
2022-10-13T23:59:00.543Z,97622.03
